Time;durP1;ratioP1;P1;durP2;ratioP2;P2;SDS_P1;SDS_P2;PMS_P1;PMS_P2;Temp;Humidity;BMP_temperature;BMP_pressure;BME280_temperature;BME280_humidity;BME280_pressure;Samples;Min_cycle;Max_cycle;Signal;HPM_P1;HPM_P2
2021/12/19 10:10:47;;;;;;;17.13;4.20;;;7.60;99.90;;;;;;5090523;28;20443;-61
2021/12/19 10:13:14;;;;;;;17.77;4.93;;;7.50;99.90;;;;;;5081581;28;20534;-62
2021/12/19 10:15:41;;;;;;;24.48;4.22;;;7.40;99.90;;;;;;5070556;28;20494;-61
2021/12/19 10:18:08;;;;;;;21.05;3.90;;;7.40;99.90;;;;;;5060940;28;20040;-62
2021/12/19 10:20:59;;;;;;;16.30;4.35;;;7.40;99.90;;;;;;5060787;28;20055;-62
2021/12/19 10:23:31;;;;;;;18.30;4.15;;;7.40;99.90;;;;;;5061063;28;20545;-62
2021/12/19 10:26:04;;;;;;;24.60;4.55;;;7.40;99.90;;;;;;5061093;28;20402;-62
2021/12/19 10:28:30;;;;;;;20.90;4.20;;;7.50;99.90;;;;;;5065590;28;20127;-62
2021/12/19 10:31:02;;;;;;;18.63;4.22;;;7.50;99.90;;;;;;5069688;28;20049;-63
2021/12/19 10:33:31;;;;;;;12.25;3.30;;;7.50;99.90;;;;;;5069215;28;20063;-62
2021/12/19 10:36:09;;;;;;;14.40;3.55;;;7.60;99.90;;;;;;5070551;28;20140;-62
2021/12/19 10:38:38;;;;;;;16.02;3.78;;;7.60;99.90;;;;;;5070465;28;20102;-62
2021/12/19 10:41:11;;;;;;;18.27;3.53;;;7.50;99.90;;;;;;5070346;28;20060;-62
2021/12/19 10:45:29;;;;;;;15.07;3.42;;;7.60;99.90;;;;;;5069276;28;20041;-62
2021/12/19 10:46:44;;;;;;;14.10;3.22;;;7.60;99.90;;;;;;5079490;28;20592;-63
2021/12/19 10:49:28;;;;;;;15.68;2.97;;;7.60;99.90;;;;;;5088217;28;20083;-62
2021/12/19 10:52:01;;;;;;;17.42;3.17;;;7.60;99.90;;;;;;5062113;28;20087;-63
2021/12/19 10:54:27;;;;;;;19.88;3.80;;;7.60;99.90;;;;;;5053046;28;20061;-62
2021/12/19 10:57:09;;;;;;;17.67;3.13;;;7.60;99.90;;;;;;5049880;28;20588;-64
2021/12/19 10:59:35;;;;;;;18.23;3.83;;;7.60;99.90;;;;;;5050177;28;20048;-62
2021/12/19 11:02:01;;;;;;;20.60;3.30;;;7.60;99.90;;;;;;5049788;28;20057;-62
2021/12/19 11:04:27;;;;;;;16.08;3.90;;;7.70;99.90;;;;;;5055096;28;20484;-61
2021/12/19 11:07:02;;;;;;;13.18;2.90;;;7.70;99.90;;;;;;5069936;28;20478;-64
2021/12/19 11:09:37;;;;;;;11.70;2.92;;;7.70;99.90;;;;;;5060308;28;20059;-62
2021/12/19 11:12:11;;;;;;;16.83;3.60;;;7.70;99.90;;;;;;5055174;28;20045;-64
2021/12/19 11:14:43;;;;;;;12.98;3.15;;;7.70;99.90;;;;;;5050384;28;20048;-63
2021/12/19 11:17:20;;;;;;;17.05;3.92;;;7.70;99.90;;;;;;5064370;28;20045;-62
2021/12/19 11:19:48;;;;;;;15.75;3.67;;;7.70;99.90;;;;;;5068287;28;20060;-63
2021/12/19 11:22:23;;;;;;;13.57;3.38;;;7.80;99.90;;;;;;5056263;28;20063;-62
2021/12/19 11:24:50;;;;;;;15.63;3.00;;;7.70;99.90;;;;;;5047471;28;20049;-63
2021/12/19 11:27:15;;;;;;;13.57;3.22;;;7.70;99.90;;;;;;5044025;28;20087;-62
2021/12/19 11:29:44;;;;;;;16.17;3.03;;;7.70;99.90;;;;;;5044713;28;20437;-62
2021/12/19 11:32:18;;;;;;;14.52;2.72;;;7.90;99.90;;;;;;5046753;28;20060;-62
2021/12/19 11:35:05;;;;;;;15.60;2.70;;;7.70;99.90;;;;;;5046028;28;20057;-63
2021/12/19 11:37:42;;;;;;;14.00;2.88;;;7.70;99.90;;;;;;5062655;28;20048;-60
2021/12/19 11:40:09;;;;;;;15.00;3.20;;;7.70;99.90;;;;;;5046527;28;20057;-62
2021/12/19 11:42:40;;;;;;;13.48;2.47;;;7.80;99.90;;;;;;5045720;28;20121;-61
2021/12/19 11:47:55;;;;;;;12.95;2.65;;;8.00;99.90;;;;;;5041157;28;20049;-61
2021/12/19 11:50:44;;;;;;;10.80;2.80;;;7.70;99.90;;;;;;5036405;28;20103;-61
2021/12/19 11:53:10;;;;;;;13.90;2.83;;;7.70;99.90;;;;;;5037617;28;20060;-60
2021/12/19 11:55:41;;;;;;;8.73;2.35;;;7.80;99.90;;;;;;5044178;28;20400;-61
2021/12/19 11:58:07;;;;;;;11.52;2.42;;;7.80;99.90;;;;;;5046753;28;20507;-62
2021/12/19 12:00:40;;;;;;;13.45;2.40;;;7.90;99.90;;;;;;5054550;28;20095;-60
2021/12/19 12:03:14;;;;;;;14.88;2.47;;;7.80;99.90;;;;;;5055679;28;20103;-61
2021/12/19 12:05:48;;;;;;;17.35;3.00;;;7.80;99.90;;;;;;5056015;28;20131;-61
2021/12/19 12:08:14;;;;;;;11.55;2.22;;;7.80;99.90;;;;;;5055496;28;20099;-61
2021/12/19 12:13:28;;;;;;;12.73;2.95;;;7.90;99.90;;;;;;5054244;28;20063;-61
2021/12/19 12:16:09;;;;;;;14.13;2.53;;;7.90;99.90;;;;;;5050617;28;20044;-63
2021/12/19 12:18:37;;;;;;;14.23;2.60;;;7.90;99.90;;;;;;5045823;28;20049;-62
2021/12/19 12:21:22;;;;;;;12.40;2.75;;;7.90;99.90;;;;;;5045648;28;20048;-62
2021/12/19 12:24:03;;;;;;;17.45;3.25;;;7.70;99.90;;;;;;5046462;28;20059;-62
2021/12/19 12:26:50;;;;;;;11.38;2.80;;;8.20;99.90;;;;;;5036075;28;20052;-61
2021/12/19 12:29:17;;;;;;;15.25;3.17;;;;;;;;;;5050121;28;20045;-63
2021/12/19 12:31:43;;;;;;;;;;;7.90;99.90;;;;;;5052449;28;20422;-62
2021/12/19 12:34:11;;;;;;;22.58;3.00;;;8.20;99.90;;;;;;5049653;28;19921;-62
2021/12/19 12:36:37;;;;;;;17.75;3.25;;;;;;;;;;5045969;28;20137;-62
2021/12/19 12:39:08;;;;;;;13.05;2.97;;;7.90;99.90;;;;;;5043959;28;20052;-63
2021/12/19 12:41:50;;;;;;;15.38;3.40;;;7.90;99.90;;;;;;5046744;28;20052;-62
2021/12/19 12:44:19;;;;;;;16.08;2.90;;;8.00;99.90;;;;;;5045381;28;20048;-63
2021/12/19 12:46:45;;;;;;;20.35;3.50;;;8.00;99.90;;;;;;5045194;28;20377;-62
2021/12/19 12:49:16;;;;;;;13.07;3.30;;;8.00;99.90;;;;;;5041883;28;20033;-62
2021/12/19 12:51:57;;;;;;;18.25;3.67;;;8.00;99.90;;;;;;5044494;28;20406;-63
2021/12/19 12:54:34;;;;;;;16.33;3.22;;;8.00;99.90;;;;;;5043394;28;20053;-62
2021/12/19 12:57:03;;;;;;;17.83;3.40;;;8.00;99.90;;;;;;5051661;28;20044;-63
2021/12/19 12:59:32;;;;;;;20.48;3.38;;;8.00;99.90;;;;;;5070152;28;20048;-62
2021/12/19 13:02:26;;;;;;;17.98;3.13;;;8.00;99.90;;;;;;5055042;28;20443;-62
2021/12/19 13:04:52;;;;;;;24.63;9.43;;;8.00;99.90;;;;;;5051989;28;20516;-62
2021/12/19 13:07:24;;;;;;;19.38;3.13;;;8.10;99.90;;;;;;5053637;28;20056;-62
2021/12/19 13:10:00;;;;;;;17.10;3.08;;;8.10;99.90;;;;;;5053083;28;20053;-62
2021/12/19 13:12:26;;;;;;;;;;;8.10;99.90;;;;;;5050136;28;20052;-61
2021/12/19 13:14:57;;;;;;;21.88;3.65;;;8.10;99.90;;;;;;5044631;28;19920;-63
2021/12/19 13:17:32;;;;;;;21.58;3.65;;;8.10;99.90;;;;;;5045365;28;20510;-62
2021/12/19 13:20:02;;;;;;;20.63;3.50;;;8.10;99.90;;;;;;5042280;28;20069;-62
2021/12/19 13:22:46;;;;;;;20.88;3.67;;;8.10;99.90;;;;;;5036971;28;20045;-62
2021/12/19 13:25:18;;;;;;;21.85;3.15;;;8.10;99.90;;;;;;5039404;28;20052;-63
2021/12/19 13:27:48;;;;;;;20.75;3.20;;;8.10;99.90;;;;;;5034122;28;20111;-64
2021/12/19 13:30:24;;;;;;;17.58;3.20;;;8.10;99.90;;;;;;5034474;28;20133;-62
2021/12/19 13:32:51;;;;;;;25.23;3.63;;;8.10;99.90;;;;;;5034030;28;20053;-63
2021/12/19 13:35:30;;;;;;;18.63;3.33;;;8.10;99.90;;;;;;5034529;28;20389;-62
2021/12/19 13:38:03;;;;;;;20.30;3.28;;;8.10;99.90;;;;;;5033642;28;20543;-62
2021/12/19 13:40:31;;;;;;;17.00;3.42;;;8.10;99.90;;;;;;5033772;28;20060;-62
2021/12/19 13:43:04;;;;;;;17.17;3.47;;;8.10;99.90;;;;;;5045678;28;20049;-62
2021/12/19 13:45:52;;;;;;;21.23;3.60;;;8.10;99.90;;;;;;5044130;28;20083;-62
2021/12/19 13:48:21;;;;;;;16.50;3.47;;;8.10;99.90;;;;;;5044533;28;20127;-62
2021/12/19 13:50:55;;;;;;;19.30;3.55;;;8.10;99.90;;;;;;5043743;28;20053;-62
2021/12/19 13:53:22;;;;;;;23.45;4.03;;;8.10;99.90;;;;;;5046235;28;20507;-62
2021/12/19 13:55:56;;;;;;;;;;;8.10;99.90;;;;;;5052987;28;20452;-61
2021/12/19 13:58:26;;;;;;;15.50;3.10;;;8.10;99.90;;;;;;5052029;28;19927;-62
2021/12/19 14:00:54;;;;;;;24.15;3.78;;;8.10;99.90;;;;;;5052586;28;20443;-62
2021/12/19 14:03:51;;;;;;;19.02;3.10;;;8.10;99.90;;;;;;5053357;28;20053;-62
2021/12/19 14:06:32;;;;;;;23.33;3.67;;;8.10;99.90;;;;;;5051487;28;20037;-62
2021/12/19 14:09:07;;;;;;;21.98;3.60;;;8.10;99.90;;;;;;5052278;28;20128;-63
2021/12/19 14:11:35;;;;;;;20.48;3.47;;;8.10;99.90;;;;;;5051497;28;20061;-63
2021/12/19 14:14:08;;;;;;;13.60;3.33;;;8.10;99.90;;;;;;5052223;28;20102;-63
2021/12/19 14:16:44;;;;;;;15.68;2.88;;;8.10;99.90;;;;;;5053581;28;20121;-63
2021/12/19 14:19:23;;;;;;;17.08;3.10;;;8.10;99.90;;;;;;5050242;28;20481;-63
2021/12/19 14:21:54;;;;;;;14.80;3.00;;;8.00;99.90;;;;;;5067056;28;20049;-62
2021/12/19 14:24:31;;;;;;;16.17;2.97;;;8.00;99.90;;;;;;5051936;28;20151;-62
2021/12/19 14:27:14;;;;;;;13.70;2.53;;;7.90;99.90;;;;;;5053299;28;20550;-62
2021/12/19 14:29:47;;;;;;;11.88;2.00;;;7.90;99.90;;;;;;5053423;28;20053;-62
2021/12/19 14:32:29;;;;;;;14.55;2.33;;;7.80;99.90;;;;;;5053111;28;20220;-63
2021/12/19 14:34:58;;;;;;;10.98;2.10;;;7.90;99.90;;;;;;5053156;28;20132;-62
2021/12/19 14:37:51;;;;;;;17.35;2.30;;;7.90;99.90;;;;;;5052435;28;20618;-63
2021/12/19 14:40:19;;;;;;;12.02;2.72;;;7.90;99.90;;;;;;5050880;28;20053;-62
2021/12/19 14:42:55;;;;;;;10.77;2.05;;;7.90;99.90;;;;;;5052059;28;20085;-62
2021/12/19 14:45:35;;;;;;;9.35;1.63;;;7.80;99.90;;;;;;5053650;28;20041;-63
2021/12/19 14:48:01;;;;;;;13.65;1.95;;;;;;;;;;5053514;28;20091;-62
2021/12/19 14:50:33;;;;;;;15.23;2.60;;;7.80;99.90;;;;;;5053321;28;20041;-62
2021/12/19 14:53:06;;;;;;;10.80;2.00;;;7.80;99.90;;;;;;5052227;28;20063;-62
2021/12/19 14:55:40;;;;;;;11.32;2.63;;;7.80;99.90;;;;;;5052670;28;20045;-62
2021/12/19 14:58:06;;;;;;;11.30;2.70;;;7.80;99.90;;;;;;5057419;28;20381;-62
2021/12/19 15:00:33;;;;;;;17.85;2.60;;;7.80;99.90;;;;;;5055542;28;20053;-62
2021/12/19 15:02:58;;;;;;;16.88;2.55;;;7.80;99.90;;;;;;5055946;28;20080;-62
2021/12/19 15:05:24;;;;;;;11.27;2.80;;;7.80;99.90;;;;;;5055746;28;20084;-63
2021/12/19 15:07:50;;;;;;;13.10;2.35;;;7.80;99.90;;;;;;5055687;28;20052;-62
2021/12/19 15:10:17;;;;;;;11.10;2.47;;;7.80;99.90;;;;;;5055060;28;20063;-63
2021/12/19 15:12:43;;;;;;;13.73;2.30;;;7.80;99.90;;;;;;5055491;28;20057;-62
2021/12/19 15:15:11;;;;;;;13.68;2.25;;;7.80;99.90;;;;;;5055541;28;20056;-62
2021/12/19 15:17:36;;;;;;;12.35;2.28;;;7.80;99.90;;;;;;5056428;28;20049;-62
2021/12/19 15:20:03;;;;;;;19.83;3.30;;;7.80;99.90;;;;;;5055523;28;20060;-62
2021/12/19 15:22:31;;;;;;;5.55;1.52;;;7.80;99.90;;;;;;5055359;28;20052;-62
2021/12/19 15:24:57;;;;;;;12.48;1.80;;;7.80;99.90;;;;;;5055218;28;20056;-62
2021/12/19 15:27:23;;;;;;;10.65;2.00;;;8.10;99.90;;;;;;5055238;28;20040;-62
2021/12/19 15:29:48;;;;;;;7.97;1.70;;;7.80;99.90;;;;;;5055105;28;20037;-62
2021/12/19 15:32:14;;;;;;;10.88;1.50;;;7.80;99.90;;;;;;5056182;28;20045;-63
2021/12/19 15:34:41;;;;;;;8.23;1.85;;;7.80;99.90;;;;;;5055004;28;20045;-63
2021/12/19 15:37:08;;;;;;;13.90;1.98;;;7.80;99.90;;;;;;5056632;28;20114;-62
2021/12/19 15:39:34;;;;;;;12.05;2.08;;;7.80;99.90;;;;;;5055352;28;20061;-63
2021/12/19 15:42:00;;;;;;;13.13;1.90;;;7.80;99.90;;;;;;5055225;28;20053;-62
2021/12/19 15:44:26;;;;;;;9.98;1.85;;;7.80;99.90;;;;;;5054498;28;20049;-63
2021/12/19 15:46:52;;;;;;;11.50;1.90;;;7.80;99.90;;;;;;5055157;28;20063;-63
2021/12/19 15:49:18;;;;;;;12.50;2.10;;;7.70;99.90;;;;;;5055538;28;20049;-63
2021/12/19 15:51:44;;;;;;;15.98;2.80;;;7.70;99.90;;;;;;5055828;28;20053;-63
2021/12/19 15:54:10;;;;;;;8.75;2.00;;;8.10;99.90;;;;;;5054690;28;20053;-62
2021/12/19 15:56:37;;;;;;;11.00;2.08;;;7.70;99.90;;;;;;5055231;28;20060;-62
2021/12/19 15:59:04;;;;;;;14.50;2.42;;;8.20;99.90;;;;;;5054630;28;20059;-62
2021/12/19 16:01:30;;;;;;;10.48;1.73;;;;;;;;;;5054786;28;20049;-62
2021/12/19 16:03:57;;;;;;;12.50;2.08;;;7.60;99.90;;;;;;5055604;28;20060;-62
2021/12/19 16:06:24;;;;;;;13.32;2.08;;;7.60;99.90;;;;;;5055565;28;20394;-62
2021/12/19 16:08:50;;;;;;;11.30;1.80;;;7.70;99.90;;;;;;5054111;28;20045;-62
2021/12/19 16:11:16;;;;;;;7.00;1.42;;;7.60;99.90;;;;;;5056036;28;20128;-62
2021/12/19 16:13:42;;;;;;;11.68;1.80;;;7.60;99.90;;;;;;5055437;28;20191;-61
2021/12/19 16:16:08;;;;;;;7.13;1.92;;;7.60;99.90;;;;;;5054408;28;20403;-62
2021/12/19 16:18:34;;;;;;;9.73;1.70;;;7.60;99.90;;;;;;5038416;28;20387;-62
2021/12/19 16:21:00;;;;;;;11.25;1.85;;;8.10;99.90;;;;;;5055315;28;20053;-61
2021/12/19 16:23:25;;;;;;;9.75;2.10;;;7.60;99.90;;;;;;5055122;28;20497;-61
2021/12/19 16:25:51;;;;;;;15.07;2.30;;;7.60;99.90;;;;;;5053979;28;20049;-62
2021/12/19 16:28:17;;;;;;;8.60;1.60;;;;;;;;;;5055174;28;20048;-62
2021/12/19 16:30:43;;;;;;;7.68;1.40;;;7.60;99.90;;;;;;5055613;28;20053;-63
2021/12/19 16:33:10;;;;;;;10.55;1.90;;;7.60;99.90;;;;;;5055207;28;20098;-62
2021/12/19 16:35:38;;;;;;;7.45;1.73;;;7.60;99.90;;;;;;5054259;28;20052;-62
2021/12/19 16:38:04;;;;;;;11.60;2.30;;;7.60;99.90;;;;;;5053952;28;20052;-63
2021/12/19 16:40:33;;;;;;;6.97;1.60;;;7.70;99.90;;;;;;5053563;28;20060;-64
2021/12/19 16:45:50;;;;;;;8.63;1.70;;;7.80;99.90;;;;;;5070765;28;20136;-63
2021/12/19 16:48:16;;;;;;;10.82;1.92;;;7.60;99.90;;;;;;5053737;28;20055;-63
2021/12/19 16:50:43;;;;;;;14.40;2.53;;;7.80;99.90;;;;;;5054956;28;20049;-62
2021/12/19 16:53:09;;;;;;;;;;;7.60;99.90;;;;;;5055318;28;20071;-63
2021/12/19 16:55:36;;;;;;;11.63;2.10;;;7.60;99.90;;;;;;5053905;28;19920;-62
2021/12/19 16:58:02;;;;;;;8.77;2.25;;;7.60;99.90;;;;;;5053600;28;20044;-63
2021/12/19 17:00:28;;;;;;;;;;;7.60;99.90;;;;;;5053765;28;20064;-62
2021/12/19 17:02:53;;;;;;;8.60;2.00;;;7.60;99.90;;;;;;5054352;28;20236;-62
2021/12/19 17:05:20;;;;;;;11.43;1.77;;;7.60;99.90;;;;;;5054273;28;20084;-63
2021/12/19 17:07:45;;;;;;;;;;;7.60;99.90;;;;;;5053846;28;20060;-63
2021/12/19 17:10:11;;;;;;;12.15;2.00;;;7.60;99.90;;;;;;5052854;28;19921;-63
2021/12/19 17:12:38;;;;;;;8.35;1.75;;;7.60;99.90;;;;;;5054382;28;20061;-62
2021/12/19 17:15:05;;;;;;;8.10;1.48;;;7.60;99.90;;;;;;5053172;28;20534;-62
2021/12/19 17:17:31;;;;;;;6.63;1.80;;;7.60;99.90;;;;;;5054128;28;20041;-62
2021/12/19 17:19:57;;;;;;;10.05;1.70;;;7.60;99.90;;;;;;5069459;28;20388;-62
2021/12/19 17:22:22;;;;;;;9.77;2.15;;;7.70;99.90;;;;;;5054625;28;20053;-64
2021/12/19 17:24:48;;;;;;;10.35;2.13;;;7.90;99.90;;;;;;5052687;28;20436;-63
2021/12/19 17:27:14;;;;;;;9.35;1.73;;;7.60;99.90;;;;;;5053029;28;20072;-63
2021/12/19 17:29:42;;;;;;;9.20;1.52;;;7.70;99.90;;;;;;5052850;28;20085;-62
2021/12/19 17:32:08;;;;;;;10.35;1.70;;;7.70;99.90;;;;;;5052864;28;20092;-62
2021/12/19 17:34:33;;;;;;;7.32;1.50;;;7.70;99.90;;;;;;5053832;28;20084;-63
2021/12/19 17:37:01;;;;;;;9.07;1.77;;;7.70;99.90;;;;;;5052847;28;20102;-63
2021/12/19 17:39:31;;;;;;;11.50;1.92;;;7.70;99.90;;;;;;5052797;28;20507;-63
2021/12/19 17:42:01;;;;;;;9.23;1.80;;;7.70;99.90;;;;;;5052583;28;20452;-62
2021/12/19 17:44:28;;;;;;;10.57;1.85;;;7.70;99.90;;;;;;5053760;28;20081;-62
2021/12/19 17:46:54;;;;;;;12.50;2.00;;;7.70;99.90;;;;;;5053473;28;20493;-64
2021/12/19 17:49:20;;;;;;;9.90;2.10;;;7.60;99.90;;;;;;5053354;28;20052;-64
2021/12/19 17:51:46;;;;;;;17.83;2.33;;;7.60;99.90;;;;;;5069925;28;20052;-63
2021/12/19 17:54:12;;;;;;;14.15;2.33;;;7.70;99.90;;;;;;5052246;28;20098;-62
2021/12/19 17:56:38;;;;;;;10.40;2.22;;;7.70;99.90;;;;;;5053481;28;20040;-62
2021/12/19 17:59:04;;;;;;;12.18;2.40;;;7.70;99.90;;;;;;5052354;28;20052;-63
2021/12/19 18:01:30;;;;;;;13.27;2.08;;;7.70;99.90;;;;;;5053601;28;20128;-62
2021/12/19 18:03:57;;;;;;;10.75;1.92;;;7.70;99.90;;;;;;5052378;28;20088;-62
2021/12/19 18:06:29;;;;;;;16.98;2.63;;;7.70;99.90;;;;;;5053498;28;20052;-64
2021/12/19 18:08:59;;;;;;;11.88;2.35;;;7.70;99.90;;;;;;5052374;28;20052;-63
2021/12/19 18:11:26;;;;;;;15.48;2.92;;;7.70;99.90;;;;;;5054325;28;20493;-63
2021/12/19 18:13:53;;;;;;;12.82;2.42;;;7.70;99.90;;;;;;5052717;28;20124;-62
2021/12/19 18:16:20;;;;;;;12.43;2.83;;;8.80;99.90;;;;;;5053484;28;20041;-62
2021/12/19 18:18:47;;;;;;;19.08;2.83;;;7.70;99.90;;;;;;5052686;28;20088;-62
2021/12/19 18:21:12;;;;;;;15.02;2.90;;;7.70;99.90;;;;;;5069917;28;20347;-63
2021/12/19 18:23:39;;;;;;;16.65;2.85;;;7.60;99.90;;;;;;5053303;28;20132;-63
2021/12/19 18:26:07;;;;;;;20.63;4.32;;;7.60;99.90;;;;;;5053630;28;20362;-63
2021/12/19 18:28:37;;;;;;;21.10;5.03;;;7.60;99.90;;;;;;5052944;28;20051;-65
2021/12/19 18:31:02;;;;;;;17.00;3.65;;;7.60;99.90;;;;;;5053962;28;20049;-63
2021/12/19 18:33:29;;;;;;;23.23;3.72;;;7.60;99.90;;;;;;5056303;28;20044;-62
2021/12/19 18:36:03;;;;;;;24.42;4.40;;;;;;;;;;5056225;28;20052;-61
2021/12/19 18:38:30;;;;;;;18.00;3.53;;;;;;;;;;5056795;28;20095;-63
2021/12/19 18:40:57;;;;;;;27.10;3.67;;;;;;;;;;5056349;28;20102;-61
2021/12/19 18:43:41;;;;;;;20.33;3.53;;;7.60;99.90;;;;;;5055938;28;20192;-62
2021/12/19 18:46:34;;;;;;;23.48;4.15;;;7.60;99.90;;;;;;5056065;28;20075;-62
2021/12/19 18:51:41;;;;;;;21.20;3.95;;;7.50;99.90;;;;;;5072439;28;20103;-64
2021/12/19 18:56:34;;;;;;;26.42;3.92;;;7.50;99.90;;;;;;5066601;28;20057;-61
2021/12/19 18:59:05;;;;;;;23.00;4.65;;;;;;;;;;5048079;28;20045;-62
2021/12/19 19:01:44;;;;;;;18.83;3.75;;;7.50;99.90;;;;;;5045984;28;20059;-63
2021/12/19 19:04:17;;;;;;;21.27;3.90;;;7.50;99.90;;;;;;5046646;28;20482;-64
2021/12/19 19:06:46;;;;;;;25.98;3.90;;;7.40;99.90;;;;;;5047333;28;20063;-65
2021/12/19 19:09:15;;;;;;;22.30;3.97;;;7.40;99.90;;;;;;5046711;28;20037;-64
2021/12/19 19:11:42;;;;;;;23.92;4.13;;;7.30;99.90;;;;;;5056608;28;20056;-64
2021/12/19 19:14:08;;;;;;;29.10;4.88;;;7.40;99.90;;;;;;5048489;28;20116;-62
2021/12/19 19:16:34;;;;;;;;;;;7.40;99.90;;;;;;5053127;28;20052;-63
2021/12/19 19:19:03;;;;;;;21.30;3.78;;;6.90;99.90;;;;;;5057179;28;19928;-63
2021/12/19 19:21:29;;;;;;;20.52;3.38;;;8.10;99.90;;;;;;5044655;28;20037;-65
2021/12/19 19:23:55;;;;;;;22.88;3.92;;;;;;;;;;5045730;28;20057;-63
2021/12/19 19:26:21;;;;;;;23.15;3.78;;;7.30;99.90;;;;;;5045129;28;20047;-64
2021/12/19 19:28:47;;;;;;;23.98;3.63;;;7.30;99.90;;;;;;5045631;28;20442;-64
2021/12/19 19:31:13;;;;;;;25.58;4.07;;;7.30;99.90;;;;;;5056825;28;20053;-64
2021/12/19 19:33:39;;;;;;;32.38;5.00;;;7.30;99.90;;;;;;5056158;28;20044;-64
2021/12/19 19:36:06;;;;;;;27.63;4.20;;;7.30;99.90;;;;;;5071494;28;20060;-65
2021/12/19 19:38:49;;;;;;;21.08;3.47;;;7.30;99.90;;;;;;5056114;28;20057;-64
2021/12/19 19:49:13;;;;;;;21.38;4.22;;;7.20;99.90;;;;;;5055859;28;20052;-63
2021/12/19 19:51:41;;;;;;;20.95;4.35;;;7.80;99.90;;;;;;5055822;28;20474;-63
2021/12/19 19:54:09;;;;;;;29.33;4.97;;;7.30;99.90;;;;;;5071417;28;20041;-63
2021/12/19 19:56:36;;;;;;;22.92;4.15;;;7.30;99.90;;;;;;5071668;28;20048;-63
2021/12/19 19:59:06;;;;;;;22.67;4.10;;;7.30;99.90;;;;;;5055804;28;20166;-62
2021/12/19 20:01:32;;;;;;;23.25;4.18;;;7.20;99.90;;;;;;5055631;28;20044;-63
2021/12/19 20:03:58;;;;;;;25.98;4.28;;;7.30;99.90;;;;;;5054403;28;20136;-63
2021/12/19 20:06:24;;;;;;;27.05;4.28;;;7.20;99.90;;;;;;5055578;28;20048;-64
2021/12/19 20:08:49;;;;;;;27.67;4.88;;;7.70;99.90;;;;;;5055452;28;20040;-63
2021/12/19 20:11:16;;;;;;;21.02;4.32;;;;;;;;;;5055331;28;20063;-62
2021/12/19 20:13:42;;;;;;;25.05;4.35;;;7.20;99.90;;;;;;5055642;28;20052;-62
2021/12/19 20:16:08;;;;;;;33.83;5.28;;;7.30;99.90;;;;;;5070837;28;20053;-62
2021/12/19 20:18:34;;;;;;;25.73;4.00;;;7.30;99.90;;;;;;5071804;28;20171;-63
2021/12/19 20:21:00;;;;;;;28.10;4.55;;;7.20;99.90;;;;;;5071315;28;20055;-63
2021/12/19 20:23:55;;;;;;;27.88;4.47;;;7.20;99.90;;;;;;5055122;28;20373;-62
2021/12/19 20:26:35;;;;;;;24.73;4.13;;;8.00;99.90;;;;;;5056057;28;20051;-63
2021/12/19 20:29:01;;;;;;;25.58;4.88;;;7.20;99.90;;;;;;5088092;28;20389;-62
2021/12/19 20:31:28;;;;;;;26.35;3.83;;;;;;;;;;5055113;28;20049;-62
2021/12/19 20:33:54;;;;;;;25.23;4.53;;;7.20;99.90;;;;;;5055219;28;20393;-62
2021/12/19 20:36:20;;;;;;;24.70;3.97;;;7.20;99.90;;;;;;5055101;28;20053;-62
2021/12/19 20:38:46;;;;;;;24.25;4.50;;;7.20;99.90;;;;;;5054964;28;20098;-62
2021/12/19 20:41:12;;;;;;;26.88;4.20;;;7.20;99.90;;;;;;5053884;28;20057;-62
2021/12/19 20:43:39;;;;;;;26.40;3.83;;;;;;;;;;5054774;28;20110;-62
2021/12/19 20:46:05;;;;;;;39.67;5.53;;;7.10;99.90;;;;;;5055084;28;20053;-62
2021/12/19 20:48:33;;;;;;;29.50;4.45;;;;;;;;;;5054788;28;20049;-63
2021/12/19 20:51:00;;;;;;;32.20;5.13;;;7.10;99.90;;;;;;5048553;28;20481;-62
2021/12/19 20:53:27;;;;;;;25.10;4.45;;;7.10;99.90;;;;;;5049821;28;20090;-63
2021/12/19 20:55:53;;;;;;;24.85;4.25;;;7.20;99.90;;;;;;5044680;28;20051;-63
2021/12/19 20:58:19;;;;;;;26.50;4.93;;;7.10;99.90;;;;;;5044162;28;20041;-63
2021/12/19 21:00:45;;;;;;;27.95;4.50;;;7.10;99.90;;;;;;5044384;28;20048;-64
2021/12/19 21:03:11;;;;;;;;;;;7.10;99.90;;;;;;5054416;28;20048;-61
2021/12/19 21:05:38;;;;;;;26.42;5.28;;;;;;;;;;5053403;28;19950;-64
2021/12/19 21:08:03;;;;;;;;;;;6.40;99.90;;;;;;5054697;28;20055;-63
2021/12/19 21:10:30;;;;;;;28.10;4.50;;;;;;;;;;5045300;28;19921;-64
2021/12/19 21:13:01;;;;;;;22.48;3.72;;;7.20;99.90;;;;;;5043567;28;20045;-62
2021/12/19 21:20:59;;;;;;;23.80;4.15;;;;;;;;;;5070353;28;20391;-62
2021/12/19 21:23:24;;;;;;;;;;;7.00;99.90;;;;;;5045371;28;20551;-62
2021/12/19 21:25:50;;;;;;;24.80;4.35;;;;;;;;;;5048230;28;19920;-63
2021/12/19 21:28:16;;;;;;;23.90;3.67;;;7.00;99.90;;;;;;5033359;28;20076;-62
2021/12/19 21:30:43;;;;;;;23.92;4.10;;;;;;;;;;5043193;28;20105;-62
2021/12/19 21:33:08;;;;;;;;;;;7.00;99.90;;;;;;5050632;28;20468;-62
2021/12/19 21:35:43;;;;;;;24.48;3.85;;;;;;;;;;5042708;28;20039;-63
2021/12/19 21:40:54;;;;;;;22.90;4.00;;;;;;;;;;5044917;28;20052;-63
2021/12/19 21:43:20;;;;;;;22.27;4.43;;;7.30;99.90;;;;;;5052785;28;20053;-62
2021/12/19 21:45:47;;;;;;;19.75;3.90;;;;;;;;;;5051479;28;20047;-64
